createdAt,value
2018-01-27T00:00:58.276Z,102385.87
2018-01-27T00:03:26.215Z,102380.34
2018-01-27T00:05:53.996Z,102384.06
2018-01-27T00:08:21.933Z,102389.09
2018-01-27T00:10:49.895Z,102389.80
2018-01-27T00:13:17.796Z,102394.05
2018-01-27T00:15:45.719Z,102400.63
2018-01-27T00:18:13.536Z,102397.06
2018-01-27T00:20:41.486Z,102406.63
2018-01-27T00:23:09.389Z,102410.61
2018-01-27T00:25:37.259Z,102409.89
2018-01-27T00:28:05.171Z,102410.19
2018-01-27T00:30:33.058Z,102407.13
2018-01-27T00:33:01.905Z,102408.81
2018-01-27T00:35:29.826Z,102415.58
2018-01-27T00:37:57.737Z,102404.66
2018-01-27T00:40:25.611Z,102408.55
2018-01-27T00:42:53.552Z,102417.64
2018-01-27T00:45:21.478Z,102411.20
2018-01-27T00:47:49.446Z,102416.31
2018-01-27T00:50:17.307Z,102416.94
2018-01-27T00:52:45.249Z,102422.59
2018-01-27T00:55:13.120Z,102422.16
2018-01-27T00:57:40.947Z,102428.80
2018-01-27T01:00:08.895Z,102433.91
2018-01-27T01:02:36.852Z,102431.20
2018-01-27T01:05:04.853Z,102429.86
2018-01-27T01:07:32.730Z,102433.70
2018-01-27T01:10:00.547Z,102435.61
2018-01-27T01:12:28.403Z,102434.55
2018-01-27T01:14:56.329Z,102437.20
2018-01-27T01:17:24.192Z,102437.73
2018-01-27T01:19:52.129Z,102434.01
2018-01-27T01:22:20.005Z,102444.91
2018-01-27T01:24:47.896Z,102442.56
2018-01-27T01:27:16.014Z,102447.02
2018-01-27T01:29:43.962Z,102444.84
2018-01-27T01:32:11.754Z,102450.41
2018-01-27T01:34:39.663Z,102444.11
2018-01-27T01:37:07.685Z,102445.75
2018-01-27T01:39:35.503Z,102445.52
2018-01-27T01:42:03.404Z,102447.60
2018-01-27T01:44:31.215Z,102454.35
2018-01-27T01:46:59.079Z,102452.56
2018-01-27T01:49:27.092Z,102454.80
2018-01-27T01:51:54.984Z,102455.86
2018-01-27T01:54:22.887Z,102461.33
2018-01-27T01:56:50.784Z,102453.15
2018-01-27T01:59:18.705Z,102458.98
2018-01-27T02:01:46.482Z,102466.34
2018-01-27T02:04:14.382Z,102464.45
2018-01-27T02:06:42.242Z,102466.23
2018-01-27T02:09:10.091Z,102463.84
2018-01-27T02:11:37.966Z,102467.88
2018-01-27T02:14:05.881Z,102472.50
2018-01-27T02:16:33.680Z,102476.23
2018-01-27T02:19:01.514Z,102479.84
2018-01-27T02:21:29.423Z,102476.71
2018-01-27T02:23:57.335Z,102485.23
2018-01-27T02:26:25.226Z,102479.48
2018-01-27T02:28:53.171Z,102483.33
2018-01-27T02:31:21.075Z,102482.78
2018-01-27T02:33:48.988Z,102485.77
2018-01-27T02:36:16.781Z,102489.44
2018-01-27T02:38:44.673Z,102489.98
2018-01-27T02:41:12.592Z,102495.45
2018-01-27T02:43:40.513Z,102494.49
2018-01-27T02:46:08.395Z,102484.81
2018-01-27T02:48:36.254Z,102480.72
2018-01-27T02:51:04.061Z,102483.38
2018-01-27T02:53:31.953Z,102488.11
2018-01-27T02:55:59.914Z,102488.42
2018-01-27T02:58:27.841Z,102480.66
2018-01-27T03:00:55.781Z,102481.51
2018-01-27T03:03:23.666Z,102485.43
2018-01-27T03:05:51.602Z,102486.81
2018-01-27T03:08:19.488Z,102484.47
2018-01-27T03:10:47.394Z,102486.19
2018-01-27T03:13:15.269Z,102487.27
2018-01-27T03:15:43.067Z,102496.91
2018-01-27T03:18:10.965Z,102499.36
2018-01-27T03:20:38.878Z,102499.09
2018-01-27T03:23:06.745Z,102505.69
2018-01-27T03:25:34.678Z,102510.29
2018-01-27T03:28:02.618Z,102515.86
2018-01-27T03:30:30.520Z,102522.77
2018-01-27T03:32:58.442Z,102524.63
2018-01-27T03:35:26.250Z,102532.02
2018-01-27T03:37:54.114Z,102534.73
2018-01-27T03:40:21.972Z,102534.73
2018-01-27T03:42:49.940Z,102543.28
2018-01-27T03:45:17.755Z,102548.98
2018-01-27T03:47:45.663Z,102544.35
2018-01-27T03:50:13.505Z,102551.31
2018-01-27T03:52:41.263Z,102544.04
2018-01-27T03:55:09.178Z,102551.97
2018-01-27T03:57:37.046Z,102551.01
2018-01-27T04:00:04.952Z,102558.59
2018-01-27T04:02:32.727Z,102556.14
2018-01-27T04:05:00.755Z,102558.55
2018-01-27T04:07:28.622Z,102567.09
2018-01-27T04:09:56.564Z,102567.03
2018-01-27T04:12:24.346Z,102566.66
2018-01-27T04:14:52.286Z,102565.98
2018-01-27T04:17:20.155Z,102571.94
2018-01-27T04:19:47.984Z,102579.16
2018-01-27T04:22:16.562Z,102579.16
2018-01-27T04:24:44.512Z,102582.63
2018-01-27T04:27:12.382Z,102589.86
2018-01-27T04:29:40.350Z,102582.69
2018-01-27T04:32:08.113Z,102588.33
2018-01-27T04:34:35.996Z,102590.73
2018-01-27T04:37:03.924Z,102585.28
2018-01-27T04:39:31.786Z,102598.06
2018-01-27T04:41:59.626Z,102591.72
2018-01-27T04:44:27.511Z,102608.64
2018-01-27T04:46:55.429Z,102604.86
2018-01-27T04:49:23.204Z,102604.39
2018-01-27T04:51:51.025Z,102614.12
2018-01-27T04:54:18.886Z,102613.59
2018-01-27T04:56:46.797Z,102614.12
2018-01-27T04:59:14.653Z,102610.58
2018-01-27T05:01:42.454Z,102623.45
2018-01-27T05:04:10.311Z,102613.95
2018-01-27T05:06:38.209Z,102615.75
2018-01-27T05:09:05.970Z,102627.66
2018-01-27T05:11:33.912Z,102629.38
2018-01-27T05:14:01.787Z,102634.31
2018-01-27T05:16:29.694Z,102638.94
2018-01-27T05:18:57.457Z,102637.63
2018-01-27T05:21:25.386Z,102637.79
2018-01-27T05:23:53.262Z,102639.48
2018-01-27T05:26:21.195Z,102641.09
2018-01-27T05:28:49.069Z,102648.43
2018-01-27T05:31:17.098Z,102646.94
2018-01-27T05:33:44.843Z,102655.54
2018-01-27T05:36:12.754Z,102655.95
2018-01-27T05:38:40.513Z,102657.10
2018-01-27T05:41:08.449Z,102658.23
2018-01-27T05:43:36.370Z,102661.00
2018-01-27T05:46:04.202Z,102661.61
2018-01-27T05:48:31.968Z,102668.77
2018-01-27T05:50:59.904Z,102675.66
2018-01-27T05:53:27.767Z,102686.28
2018-01-27T05:55:55.759Z,102695.79
2018-01-27T05:58:23.708Z,102695.26
2018-01-27T06:00:51.550Z,102692.80
2018-01-27T06:03:19.436Z,102696.69
2018-01-27T06:05:47.260Z,102698.42
2018-01-27T06:08:15.218Z,102696.70
2018-01-27T06:10:43.072Z,102699.61
2018-01-27T06:13:10.944Z,102694.52
2018-01-27T06:15:38.873Z,102705.70
2018-01-27T06:18:06.775Z,102702.33
2018-01-27T06:20:34.662Z,102708.81
2018-01-27T06:23:02.569Z,102702.12
2018-01-27T06:25:30.358Z,102699.20
2018-01-27T06:27:58.301Z,102704.55
2018-01-27T06:30:26.149Z,102700.41
2018-01-27T06:32:54.122Z,102704.95
2018-01-27T06:35:21.989Z,102700.52
2018-01-27T06:37:50.004Z,102701.02
2018-01-27T06:40:17.891Z,102714.05
2018-01-27T06:42:45.768Z,102711.81
2018-01-27T06:45:13.647Z,102712.59
2018-01-27T06:47:41.557Z,102717.16
2018-01-27T06:50:09.425Z,102722.11
2018-01-27T06:52:37.217Z,102721.80
2018-01-27T06:55:05.041Z,102729.52
2018-01-27T06:57:32.955Z,102730.23
2018-01-27T07:00:00.819Z,102729.45
2018-01-27T07:02:28.617Z,102734.70
2018-01-27T07:04:56.495Z,102727.02
2018-01-27T07:07:24.453Z,102731.94
2018-01-27T07:09:53.397Z,102735.48
2018-01-27T07:12:21.355Z,102736.11
2018-01-27T07:14:50.285Z,102744.40
2018-01-27T07:17:18.103Z,102752.16
2018-01-27T07:19:45.998Z,102752.50
2018-01-27T07:22:13.941Z,102754.52
2018-01-27T07:24:41.725Z,102757.70
2018-01-27T07:27:09.524Z,102763.77
2018-01-27T07:29:37.450Z,102763.77
2018-01-27T07:32:05.385Z,102768.75
2018-01-27T07:34:33.244Z,102763.37
2018-01-27T07:37:01.229Z,102764.93
2018-01-27T07:39:28.985Z,102766.59
2018-01-27T07:41:56.873Z,102767.02
2018-01-27T07:44:24.926Z,102769.99
2018-01-27T07:46:53.215Z,102772.09
2018-01-27T07:49:21.088Z,102778.35
2018-01-27T07:51:49.113Z,102780.34
2018-01-27T07:54:17.118Z,102776.48
2018-01-27T07:56:45.223Z,102779.81
2018-01-27T07:59:13.165Z,102788.73
2018-01-27T08:01:41.014Z,102774.39
2018-01-27T08:04:08.896Z,102784.13
2018-01-27T08:06:36.718Z,102783.70
2018-01-27T08:09:04.770Z,102779.03
2018-01-27T08:11:32.712Z,102774.89
2018-01-27T08:14:00.613Z,102781.38
2018-01-27T08:16:28.514Z,102779.74
2018-01-27T08:18:56.510Z,102776.63
2018-01-27T08:21:24.269Z,102776.41
2018-01-27T08:23:52.111Z,102780.20
2018-01-27T08:26:20.011Z,102783.25
2018-01-27T08:28:47.924Z,102789.20
2018-01-27T08:31:15.686Z,102790.58
2018-01-27T08:33:43.537Z,102791.19
2018-01-27T08:36:12.373Z,102798.94
2018-01-27T08:38:40.285Z,102796.25
2018-01-27T08:41:08.045Z,102790.30
2018-01-27T08:43:35.997Z,102792.00
2018-01-27T08:46:03.890Z,102797.27
2018-01-27T08:48:31.837Z,102792.59
2018-01-27T08:50:59.645Z,102798.52
2018-01-27T08:53:27.481Z,102798.73
2018-01-27T08:55:55.355Z,102803.41
2018-01-27T08:58:23.177Z,102800.53
2018-01-27T09:00:50.966Z,102798.02
2018-01-27T09:03:18.808Z,102800.34
2018-01-27T09:05:46.582Z,102804.55
2018-01-27T09:08:14.414Z,102800.31
2018-01-27T09:10:42.171Z,102796.23
2018-01-27T09:13:09.986Z,102805.38
2018-01-27T09:15:37.761Z,102803.95
2018-01-27T09:18:05.552Z,102804.09
2018-01-27T09:20:33.342Z,102809.58
2018-01-27T09:23:01.141Z,102811.77
2018-01-27T09:25:28.890Z,102817.34
2018-01-27T09:27:56.694Z,102814.28
2018-01-27T09:30:24.476Z,102813.98
2018-01-27T09:32:52.295Z,102818.33
2018-01-27T09:35:20.069Z,102830.20
2018-01-27T09:37:47.891Z,102832.19
2018-01-27T09:40:15.656Z,102827.13
2018-01-27T09:42:43.495Z,102829.70
2018-01-27T09:45:11.276Z,102833.87
2018-01-27T09:47:39.091Z,102840.66
2018-01-27T09:50:06.958Z,102840.60
2018-01-27T09:52:34.731Z,102834.45
2018-01-27T09:55:02.554Z,102838.17
2018-01-27T09:57:30.307Z,102845.47
2018-01-27T09:59:58.182Z,102840.95
2018-01-27T10:02:25.930Z,102840.72
2018-01-27T10:04:53.733Z,102835.12
2018-01-27T10:07:21.478Z,102840.42
2018-01-27T10:09:49.338Z,102828.56
2018-01-27T10:12:17.095Z,102828.28
2018-01-27T10:14:44.874Z,102824.72
2018-01-27T10:17:12.623Z,102827.30
2018-01-27T10:19:40.440Z,102831.88
2018-01-27T10:22:08.205Z,102842.00
2018-01-27T10:24:36.035Z,102845.45
2018-01-27T10:27:03.797Z,102847.67
2018-01-27T10:29:31.610Z,102849.27
2018-01-27T10:31:59.377Z,102853.16
2018-01-27T10:34:27.178Z,102856.24
2018-01-27T10:36:54.982Z,102854.84
2018-01-27T10:39:22.774Z,102852.22
2018-01-27T10:41:50.563Z,102849.29
2018-01-27T10:44:18.377Z,102848.47
2018-01-27T10:46:46.154Z,102855.69
2018-01-27T10:49:14.021Z,102849.39
2018-01-27T10:51:41.821Z,102841.77
2018-01-27T10:54:09.620Z,102846.98
2018-01-27T10:56:37.374Z,102839.67
2018-01-27T10:59:07.831Z,102828.80
2018-01-27T11:01:35.825Z,102822.35
2018-01-27T11:04:03.764Z,102822.63
2018-01-27T11:06:31.519Z,102819.02
2018-01-27T11:08:59.343Z,102821.45
2018-01-27T11:11:27.082Z,102810.67
2018-01-27T11:13:54.900Z,102809.59
2018-01-27T11:16:22.742Z,102811.06
2018-01-27T11:18:50.583Z,102810.50
2018-01-27T11:21:18.349Z,102814.80
2018-01-27T11:23:46.178Z,102813.69
2018-01-27T11:26:13.942Z,102806.80
2018-01-27T11:28:41.758Z,102810.62
2018-01-27T11:31:09.584Z,102811.51
2018-01-27T11:33:37.361Z,102813.51
2018-01-27T11:36:06.395Z,102809.87
2018-01-27T11:38:34.214Z,102810.02
2018-01-27T11:41:02.103Z,102808.59
2018-01-27T11:43:29.889Z,102800.63
2018-01-27T11:45:57.746Z,102795.30
2018-01-27T11:48:25.761Z,102794.25
2018-01-27T11:50:53.594Z,102788.19
2018-01-27T11:53:21.419Z,102790.59
2018-01-27T11:55:49.310Z,102783.45
2018-01-27T11:58:17.090Z,102791.40
2018-01-27T12:00:44.917Z,102785.56
2018-01-27T12:03:12.734Z,102781.61
2018-01-27T12:05:40.541Z,102784.88
2018-01-27T12:08:08.298Z,102777.47
2018-01-27T12:10:36.130Z,102771.88
2018-01-27T12:13:03.886Z,102776.67
2018-01-27T12:15:31.739Z,102784.45
2018-01-27T12:17:59.538Z,102779.78
2018-01-27T12:20:27.390Z,102770.59
2018-01-27T12:22:55.167Z,102776.36
2018-01-27T12:25:22.977Z,102778.17
2018-01-27T12:27:50.774Z,102782.80
2018-01-27T12:30:27.096Z,102780.06
2018-01-27T12:32:55.148Z,102783.91
2018-01-27T12:35:22.954Z,102782.72
2018-01-27T12:37:50.743Z,102783.13
2018-01-27T12:40:18.573Z,102778.41
2018-01-27T12:42:46.356Z,102775.14
2018-01-27T12:45:14.182Z,102769.52
2018-01-27T12:47:41.978Z,102764.25
2018-01-27T12:50:09.833Z,102770.16
2018-01-27T12:52:37.613Z,102773.84
2018-01-27T12:55:05.406Z,102768.58
2018-01-27T12:57:33.163Z,102765.30
2018-01-27T13:00:00.956Z,102759.00
2018-01-27T13:02:28.711Z,102754.41
2018-01-27T13:04:56.527Z,102747.81
2018-01-27T13:07:24.261Z,102746.88
2018-01-27T13:09:52.095Z,102750.66
2018-01-27T13:12:19.854Z,102750.91
2018-01-27T13:14:47.662Z,102758.97
2018-01-27T13:17:15.440Z,102755.14
2018-01-27T13:19:43.288Z,102749.55
2018-01-27T13:22:11.188Z,102742.23
2018-01-27T13:24:39.061Z,102734.30
2018-01-27T13:27:06.884Z,102737.61
2018-01-27T13:29:34.653Z,102734.04
2018-01-27T13:32:02.548Z,102732.97
2018-01-27T13:34:30.334Z,102718.84
2018-01-27T13:36:58.191Z,102707.37
2018-01-27T13:39:25.949Z,102708.58
2018-01-27T13:41:53.786Z,102712.03
2018-01-27T13:44:21.559Z,102709.82
2018-01-27T13:46:49.381Z,102715.25
2018-01-27T13:49:17.140Z,102706.98
2018-01-27T13:51:45.893Z,102717.20
2018-01-27T13:54:13.694Z,102714.09
2018-01-27T13:56:41.581Z,102715.37
2018-01-27T13:59:09.385Z,102710.86
2018-01-27T14:01:38.128Z,102710.09
2018-01-27T14:04:13.575Z,102702.04
2018-01-27T14:06:41.427Z,102702.73
2018-01-27T14:09:09.188Z,102692.02
2018-01-27T14:11:37.025Z,102702.10
2018-01-27T14:14:04.905Z,102701.37
2018-01-27T14:16:32.729Z,102699.87
2018-01-27T14:19:00.541Z,102705.15
2018-01-27T14:21:28.393Z,102711.77
2018-01-27T14:23:56.464Z,102711.41
2018-01-27T14:26:24.291Z,102710.90
2018-01-27T14:28:52.097Z,102705.99
2018-01-27T14:31:19.955Z,102706.06
2018-01-27T14:33:47.709Z,102706.82
2018-01-27T14:36:15.535Z,102711.00
2018-01-27T14:38:43.303Z,102727.58
2018-01-27T14:41:11.072Z,102720.66
2018-01-27T14:43:38.830Z,102717.79
2018-01-27T14:46:06.647Z,102719.39
2018-01-27T14:48:34.402Z,102721.33
2018-01-27T14:51:02.289Z,102725.97
2018-01-27T14:53:30.077Z,102722.45
2018-01-27T14:55:57.959Z,102714.63
2018-01-27T14:58:25.767Z,102706.38
2018-01-27T15:00:53.567Z,102708.93
2018-01-27T15:03:21.329Z,102709.78
2018-01-27T15:05:49.167Z,102704.14
2018-01-27T15:08:16.918Z,102705.42
2018-01-27T15:10:44.734Z,102700.77
2018-01-27T15:13:12.475Z,102698.59
2018-01-27T15:15:40.267Z,102690.78
2018-01-27T15:18:08.087Z,102694.77
2018-01-27T15:20:35.838Z,102687.95
2018-01-27T15:23:03.690Z,102680.44
2018-01-27T15:25:31.454Z,102679.85
2018-01-27T15:27:59.258Z,102664.58
2018-01-27T15:30:27.005Z,102666.44
2018-01-27T15:32:54.810Z,102664.24
2018-01-27T15:35:22.618Z,102665.73
2018-01-27T15:37:50.540Z,102660.63
2018-01-27T15:40:18.423Z,102664.47
2018-01-27T15:42:46.254Z,102665.27
2018-01-27T15:45:14.120Z,102659.93
2018-01-27T15:47:42.071Z,102657.59
2018-01-27T15:50:09.982Z,102663.83
2018-01-27T15:52:37.771Z,102656.55
2018-01-27T15:55:05.654Z,102650.78
2018-01-27T15:57:33.578Z,102640.18
2018-01-27T16:00:01.453Z,102642.53
2018-01-27T16:02:29.379Z,102643.70
2018-01-27T16:04:57.249Z,102630.23
2018-01-27T16:07:25.223Z,102643.77
2018-01-27T16:09:53.120Z,102651.64
2018-01-27T16:12:21.059Z,102645.66
2018-01-27T16:14:48.935Z,102645.36
2018-01-27T16:17:16.934Z,102655.94
2018-01-27T16:19:44.681Z,102646.63
2018-01-27T16:22:12.625Z,102643.86
2018-01-27T16:24:40.533Z,102643.44
2018-01-27T16:27:08.450Z,102646.67
2018-01-27T16:29:36.319Z,102641.61
2018-01-27T16:32:04.183Z,102628.48
2018-01-27T16:34:31.981Z,102633.00
2018-01-27T16:36:59.936Z,102619.00
2018-01-27T16:39:27.770Z,102619.20
2018-01-27T16:41:55.687Z,102606.22
2018-01-27T16:44:23.539Z,102605.01
2018-01-27T16:46:51.672Z,102608.63
2018-01-27T16:49:19.573Z,102607.77
2018-01-27T16:51:47.534Z,102609.30
2018-01-27T16:54:15.398Z,102601.93
2018-01-27T16:56:43.391Z,102598.83
2018-01-27T16:59:11.282Z,102606.39
2018-01-27T17:01:39.157Z,102603.73
2018-01-27T17:04:07.076Z,102594.15
2018-01-27T17:06:34.827Z,102587.91
2018-01-27T17:09:02.770Z,102588.56
2018-01-27T17:11:30.997Z,102579.88
2018-01-27T17:13:58.948Z,102575.72
2018-01-27T17:16:26.840Z,102569.09
2018-01-27T17:18:54.748Z,102570.30
2018-01-27T17:21:22.667Z,102562.13
2018-01-27T17:23:50.608Z,102563.88
2018-01-27T17:26:18.479Z,102548.50
2018-01-27T17:28:46.377Z,102541.25
2018-01-27T17:31:14.245Z,102546.44
2018-01-27T17:33:42.189Z,102548.83
2018-01-27T17:36:10.064Z,102543.84
2018-01-27T17:38:38.110Z,102537.38
2018-01-27T17:41:06.001Z,102539.95
2018-01-27T17:43:33.942Z,102541.13
2018-01-27T17:46:01.845Z,102535.55
2018-01-27T17:48:29.820Z,102530.86
2018-01-27T17:50:57.707Z,102533.34
2018-01-27T17:53:25.674Z,102513.89
2018-01-27T17:55:53.535Z,102503.92
2018-01-27T17:58:21.506Z,102500.38
2018-01-27T18:00:49.281Z,102489.23
2018-01-27T18:03:17.306Z,102497.98
2018-01-27T18:05:45.166Z,102508.25
2018-01-27T18:08:13.107Z,102509.46
2018-01-27T18:10:40.961Z,102502.98
2018-01-27T18:13:08.870Z,102492.91
2018-01-27T18:15:36.763Z,102493.50
2018-01-27T18:18:04.796Z,102502.27
2018-01-27T18:20:32.670Z,102492.85
2018-01-27T18:23:00.616Z,102479.69
2018-01-27T18:25:28.533Z,102473.66
2018-01-27T18:27:56.446Z,102473.87
2018-01-27T18:30:24.347Z,102474.30
2018-01-27T18:32:52.292Z,102461.61
2018-01-27T18:35:20.203Z,102455.49
2018-01-27T18:37:48.126Z,102451.04
2018-01-27T18:40:16.046Z,102461.13
2018-01-27T18:42:43.964Z,102461.39
2018-01-27T18:45:11.848Z,102452.14
2018-01-27T18:47:39.735Z,102438.49
2018-01-27T18:50:07.642Z,102437.90
2018-01-27T18:52:35.494Z,102439.51
2018-01-27T18:55:03.437Z,102438.02
2018-01-27T18:57:31.450Z,102437.11
2018-01-27T18:59:59.362Z,102437.11
2018-01-27T19:02:27.148Z,102419.00
2018-01-27T19:04:55.068Z,102411.51
2018-01-27T19:07:22.926Z,102405.45
2018-01-27T19:09:50.855Z,102392.80
2018-01-27T19:12:18.601Z,102387.38
2018-01-27T19:14:46.467Z,102391.30
2018-01-27T19:17:14.338Z,102393.11
2018-01-27T19:19:42.261Z,102373.92
2018-01-27T19:22:10.117Z,102361.38
2018-01-27T19:24:38.077Z,102357.23
2018-01-27T19:27:05.924Z,102369.09
2018-01-27T19:29:33.858Z,102364.14
2018-01-27T19:32:01.760Z,102361.59
2018-01-27T19:34:29.710Z,102343.36
2018-01-27T19:36:57.580Z,102330.70
2018-01-27T19:39:25.550Z,102331.39
2018-01-27T19:41:53.422Z,102336.08
2018-01-27T19:44:21.331Z,102329.89
2018-01-27T19:46:49.255Z,102318.56
2018-01-27T19:49:17.203Z,102313.26
2018-01-27T19:51:45.140Z,102332.19
2018-01-27T19:54:12.956Z,102323.56
2018-01-27T19:56:40.816Z,102300.87
2018-01-27T19:59:08.745Z,102279.32
2018-01-27T20:01:36.489Z,102274.91
2018-01-27T20:04:04.436Z,102293.53
2018-01-27T20:06:32.310Z,102303.84
2018-01-27T20:09:00.226Z,102298.83
2018-01-27T20:11:28.086Z,102298.30
2018-01-27T20:13:55.991Z,102299.25
2018-01-27T20:16:23.889Z,102300.91
2018-01-27T20:18:51.811Z,102298.19
2018-01-27T20:21:19.706Z,102300.93
2018-01-27T20:23:47.646Z,102303.77
2018-01-27T20:26:15.519Z,102300.16
2018-01-27T20:28:43.409Z,102282.42
2018-01-27T20:31:11.159Z,102285.64
2018-01-27T20:33:39.114Z,102278.38
2018-01-27T20:36:07.048Z,102264.39
2018-01-27T20:38:35.005Z,102254.67
2018-01-27T20:41:02.938Z,102240.80
2018-01-27T20:43:30.826Z,102244.63
2018-01-27T20:45:58.818Z,102234.39
2018-01-27T20:48:26.735Z,102244.11
2018-01-27T20:50:54.709Z,102261.53
2018-01-27T20:53:22.686Z,102268.11
2018-01-27T20:55:50.670Z,102274.87
2018-01-27T20:58:18.564Z,102280.38
2018-01-27T21:00:46.555Z,102269.31
2018-01-27T21:03:14.471Z,102247.23
2018-01-27T21:05:42.396Z,102231.50
2018-01-27T21:08:10.258Z,102222.32
2018-01-27T21:10:38.187Z,102217.41
2018-01-27T21:13:06.040Z,102201.47
2018-01-27T21:15:33.966Z,102207.64
2018-01-27T21:18:01.846Z,102192.82
2018-01-27T21:20:29.762Z,102200.34
2018-01-27T21:22:57.603Z,102189.55
2018-01-27T21:25:25.602Z,102179.91
2018-01-27T21:27:53.455Z,102169.78
2018-01-27T21:30:21.391Z,102161.14
2018-01-27T21:32:49.315Z,102163.26
2018-01-27T21:35:17.284Z,102158.80
2018-01-27T21:37:45.183Z,102157.58
2018-01-27T21:40:13.238Z,102147.47
2018-01-27T21:42:41.146Z,102141.59
2018-01-27T21:45:09.054Z,102149.84
2018-01-27T21:47:36.942Z,102144.81
2018-01-27T21:50:04.844Z,102139.42
2018-01-27T21:52:32.736Z,102134.02
2018-01-27T21:55:00.674Z,102122.20
2018-01-27T21:57:28.538Z,102117.50
2018-01-27T21:59:56.439Z,102107.64
2018-01-27T22:02:24.285Z,102101.03
2018-01-27T22:04:52.257Z,102103.64
2018-01-27T22:07:20.130Z,102110.53
2018-01-27T22:09:49.119Z,102119.83
2018-01-27T22:12:16.979Z,102120.22
2018-01-27T22:14:44.906Z,102107.38
2018-01-27T22:17:12.764Z,102116.55
2018-01-27T22:19:40.613Z,102094.50
2018-01-27T22:22:08.527Z,102091.77
2018-01-27T22:24:36.306Z,102090.95
2018-01-27T22:27:04.296Z,102081.12
2018-01-27T22:29:32.186Z,102056.78
2018-01-27T22:32:00.196Z,102046.67
2018-01-27T22:34:28.096Z,102027.88
2018-01-27T22:36:55.997Z,102016.17
2018-01-27T22:39:23.894Z,102031.45
2018-01-27T22:41:51.788Z,102033.11
2018-01-27T22:44:19.637Z,102041.53
2018-01-27T22:46:47.534Z,102040.66
2018-01-27T22:49:15.387Z,102046.04
2018-01-27T22:51:43.282Z,102048.72
2018-01-27T22:54:11.145Z,102028.35
2018-01-27T22:56:39.074Z,101989.75
2018-01-27T22:59:06.993Z,101984.00
2018-01-27T23:01:34.786Z,101979.84
2018-01-27T23:04:02.563Z,101977.55
2018-01-27T23:06:31.247Z,101971.31
2018-01-27T23:08:59.053Z,101953.95
2018-01-27T23:11:26.898Z,101938.58
2018-01-27T23:13:54.657Z,101928.81
2018-01-27T23:16:22.514Z,101928.39
2018-01-27T23:18:50.350Z,101909.86
2018-01-27T23:21:18.178Z,101910.78
2018-01-27T23:23:46.034Z,101908.28
2018-01-27T23:26:13.803Z,101911.36
2018-01-27T23:28:41.575Z,101911.97
2018-01-27T23:31:09.384Z,101901.45
2018-01-27T23:33:37.206Z,101902.31
2018-01-27T23:36:04.985Z,101895.03
2018-01-27T23:38:32.773Z,101890.38
2018-01-27T23:41:00.570Z,101888.88
2018-01-27T23:43:28.464Z,101884.84
2018-01-27T23:45:56.295Z,101895.93
2018-01-27T23:48:24.039Z,101897.73
2018-01-27T23:50:51.941Z,101892.88
2018-01-27T23:53:19.703Z,101883.03
2018-01-27T23:55:47.505Z,101865.44
2018-01-27T23:58:15.371Z,101854.67
